createdAt,value
2022-12-27T00:00:45.746Z,1.72
2022-12-27T00:01:45.758Z,1.72
2022-12-27T00:02:45.753Z,1.83
2022-12-27T00:03:45.724Z,1.72
2022-12-27T00:04:45.714Z,1.72
2022-12-27T00:05:45.730Z,1.72
2022-12-27T00:06:45.714Z,1.94
2022-12-27T00:07:45.728Z,1.89
2022-12-27T00:08:45.761Z,2.17
2022-12-27T00:09:45.726Z,2.17
2022-12-27T00:10:45.724Z,2.17
2022-12-27T00:11:45.734Z,1.72
2022-12-27T00:12:45.725Z,1.72
2022-12-27T00:13:45.735Z,1.89
2022-12-27T00:14:45.724Z,1.89
2022-12-27T00:15:45.721Z,1.61
2022-12-27T00:16:45.764Z,1.72
2022-12-27T00:17:45.721Z,1.72
2022-12-27T00:18:45.748Z,1.89
2022-12-27T00:19:45.753Z,1.72
2022-12-27T00:20:45.734Z,1.61
2022-12-27T00:21:45.739Z,1.89
2022-12-27T00:22:45.750Z,2
2022-12-27T00:23:45.738Z,2.11
2022-12-27T00:24:45.767Z,1.72
2022-12-27T00:25:45.746Z,1.72
2022-12-27T00:26:45.738Z,1.72
2022-12-27T00:27:45.755Z,1.72
2022-12-27T00:28:45.754Z,2
2022-12-27T00:29:45.735Z,2.17
2022-12-27T00:30:45.751Z,2.17
2022-12-27T00:31:45.771Z,1.89
2022-12-27T00:32:45.792Z,1.72
2022-12-27T00:33:45.782Z,1.72
2022-12-27T00:34:45.756Z,1.61
2022-12-27T00:35:45.751Z,1.61
2022-12-27T00:36:45.749Z,1.5
2022-12-27T00:37:45.756Z,1.89
2022-12-27T00:38:45.749Z,2
2022-12-27T00:39:45.750Z,2
2022-12-27T00:40:45.769Z,1.72
2022-12-27T00:41:45.769Z,1.72
2022-12-27T00:42:45.749Z,1.61
2022-12-27T00:43:45.764Z,1.89
2022-12-27T00:44:45.762Z,1.72
2022-12-27T00:45:45.784Z,2
2022-12-27T00:46:45.756Z,2.17
2022-12-27T00:47:45.760Z,2
2022-12-27T00:48:45.781Z,2
2022-12-27T00:49:45.766Z,1.89
2022-12-27T00:50:45.767Z,2.17
2022-12-27T00:51:45.755Z,2
2022-12-27T00:52:45.764Z,2.17
2022-12-27T00:53:45.765Z,2.17
2022-12-27T00:54:45.768Z,2.17
2022-12-27T00:55:45.767Z,1.72
2022-12-27T00:56:45.791Z,2.17
2022-12-27T00:57:45.784Z,1.89
2022-12-27T00:58:45.783Z,2.17
2022-12-27T00:59:45.770Z,2.17
2022-12-27T01:00:45.808Z,2.17
2022-12-27T01:01:45.877Z,2.17
2022-12-27T01:02:45.767Z,2.28
2022-12-27T01:03:45.991Z,2.17
2022-12-27T01:04:45.794Z,2
2022-12-27T01:05:45.775Z,2.17
2022-12-27T01:06:45.774Z,2.44
2022-12-27T01:07:45.771Z,2.44
2022-12-27T01:08:45.798Z,2.61
2022-12-27T01:09:45.809Z,2.61
2022-12-27T01:10:45.798Z,2.44
2022-12-27T01:11:45.782Z,2.61
2022-12-27T01:12:45.807Z,2.61
2022-12-27T01:13:45.803Z,2.44
2022-12-27T01:14:45.789Z,2.28
2022-12-27T01:15:45.790Z,2.17
2022-12-27T01:16:45.816Z,2.17
2022-12-27T01:17:45.786Z,2.28
2022-12-27T01:18:45.805Z,1.89
2022-12-27T01:19:45.778Z,1.89
2022-12-27T01:20:45.791Z,1.89
2022-12-27T01:21:45.787Z,1.72
2022-12-27T01:22:45.780Z,1.72
2022-12-27T01:23:45.809Z,2.11
2022-12-27T01:24:45.788Z,1.61
2022-12-27T01:25:45.784Z,2
2022-12-27T01:26:45.799Z,2
2022-12-27T01:27:45.795Z,2
2022-12-27T01:28:45.833Z,1.89
2022-12-27T01:29:45.791Z,2.17
2022-12-27T01:30:45.792Z,2
2022-12-27T01:31:45.840Z,2.17
2022-12-27T01:32:45.793Z,2.28
2022-12-27T01:33:45.794Z,2.28
2022-12-27T01:34:45.801Z,2.17
2022-12-27T01:35:45.812Z,2
2022-12-27T01:36:45.791Z,1.89
2022-12-27T01:37:45.813Z,1.89
2022-12-27T01:38:45.790Z,2.17
2022-12-27T01:39:45.809Z,2
2022-12-27T01:40:45.794Z,1.89
2022-12-27T01:41:45.800Z,2.17
2022-12-27T01:42:45.798Z,2
2022-12-27T01:43:45.798Z,1.72
2022-12-27T01:44:45.817Z,2.17
2022-12-27T01:45:45.824Z,1.89
2022-12-27T01:46:45.808Z,2
2022-12-27T01:47:45.815Z,1.72
2022-12-27T01:48:45.798Z,1.89
2022-12-27T01:49:45.812Z,2.28
2022-12-27T01:50:45.799Z,2
2022-12-27T01:51:45.795Z,2.28
2022-12-27T01:52:45.804Z,2
2022-12-27T01:53:45.821Z,1.89
2022-12-27T01:54:45.859Z,2
2022-12-27T01:55:45.817Z,2
2022-12-27T01:56:45.800Z,2.17
2022-12-27T01:57:45.811Z,2
2022-12-27T01:58:45.794Z,1.89
2022-12-27T01:59:45.815Z,1.89
2022-12-27T02:00:45.891Z,2
2022-12-27T02:01:45.877Z,2.17
2022-12-27T02:02:45.987Z,2.17
2022-12-27T02:03:45.798Z,2.17
2022-12-27T02:04:45.800Z,2.17
2022-12-27T02:05:45.819Z,2.17
2022-12-27T02:06:45.818Z,1.72
2022-12-27T02:07:45.817Z,2
2022-12-27T02:08:45.813Z,2
2022-12-27T02:09:45.818Z,1.89
2022-12-27T02:10:45.812Z,2.17
2022-12-27T02:11:45.818Z,2
2022-12-27T02:12:45.823Z,2
2022-12-27T02:13:45.826Z,2.17
2022-12-27T02:14:45.830Z,2.17
2022-12-27T02:15:45.826Z,2
2022-12-27T02:16:45.900Z,2.17
2022-12-27T02:17:45.815Z,2
2022-12-27T02:18:45.835Z,2
2022-12-27T02:19:45.827Z,2.17
2022-12-27T02:20:45.823Z,2
2022-12-27T02:21:45.848Z,2.17
2022-12-27T02:22:45.830Z,2.17
2022-12-27T02:23:45.841Z,2.17
2022-12-27T02:24:45.835Z,2
2022-12-27T02:25:45.838Z,2.17
2022-12-27T02:26:45.842Z,2
2022-12-27T02:27:45.861Z,2.17
2022-12-27T02:28:45.847Z,1.89
2022-12-27T02:29:45.843Z,1.89
2022-12-27T02:30:45.873Z,2
2022-12-27T02:31:45.857Z,2
2022-12-27T02:32:45.871Z,2
2022-12-27T02:33:45.840Z,2.17
2022-12-27T02:34:45.850Z,2.17
2022-12-27T02:35:45.852Z,2.17
2022-12-27T02:36:45.846Z,2
2022-12-27T02:37:45.866Z,2
2022-12-27T02:38:45.855Z,2
2022-12-27T02:39:45.898Z,2.17
2022-12-27T02:40:45.864Z,2
2022-12-27T02:41:45.872Z,1.89
2022-12-27T02:42:45.865Z,2
2022-12-27T02:43:45.877Z,2.17
2022-12-27T02:44:45.880Z,2.17
2022-12-27T02:45:45.896Z,2.17
2022-12-27T02:46:45.881Z,2
2022-12-27T02:47:45.888Z,2.22
2022-12-27T02:48:45.913Z,2.17
2022-12-27T02:49:45.875Z,2.17
2022-12-27T02:50:45.898Z,2.17
2022-12-27T02:51:45.883Z,2
2022-12-27T02:52:45.910Z,1.72
2022-12-27T02:53:45.901Z,2.17
2022-12-27T02:54:45.910Z,2.44
2022-12-27T02:55:45.908Z,2.61
2022-12-27T02:56:45.901Z,2.44
2022-12-27T02:57:45.918Z,2.44
2022-12-27T02:58:45.883Z,2.28
2022-12-27T02:59:45.897Z,2.44
2022-12-27T03:00:45.899Z,1.89
2022-12-27T03:01:45.981Z,2.44
2022-12-27T03:02:45.970Z,2.44
2022-12-27T03:03:45.900Z,2.44
2022-12-27T03:04:45.933Z,2.17
2022-12-27T03:05:45.908Z,2.44
2022-12-27T03:06:45.902Z,2
2022-12-27T03:07:45.930Z,2.61
2022-12-27T03:08:45.904Z,2.61
2022-12-27T03:09:45.909Z,2.44
2022-12-27T03:10:45.910Z,2.44
2022-12-27T03:11:45.914Z,2.61
2022-12-27T03:12:45.910Z,2.61
2022-12-27T03:13:45.924Z,2.28
2022-12-27T03:14:45.907Z,2.44
2022-12-27T03:15:45.998Z,2.28
2022-12-27T03:16:45.915Z,2.28
2022-12-27T03:17:45.912Z,2.61
2022-12-27T03:18:45.935Z,2.61
2022-12-27T03:19:45.927Z,2.17
2022-12-27T03:20:45.955Z,1.89
2022-12-27T03:21:45.930Z,2.44
2022-12-27T03:22:45.928Z,2
2022-12-27T03:23:45.954Z,2.44
2022-12-27T03:24:45.936Z,2.28
2022-12-27T03:25:45.933Z,2.22
2022-12-27T03:26:45.943Z,2
2022-12-27T03:27:45.934Z,2.17
2022-12-27T03:28:45.958Z,2.17
2022-12-27T03:29:45.957Z,1.72
2022-12-27T03:30:45.983Z,2.44
2022-12-27T03:31:45.944Z,2.44
2022-12-27T03:32:45.947Z,2.28
2022-12-27T03:33:45.952Z,2.44
2022-12-27T03:34:45.947Z,1.89
2022-12-27T03:35:45.962Z,2
2022-12-27T03:36:45.974Z,1.89
2022-12-27T03:37:45.954Z,2.17
2022-12-27T03:38:45.959Z,2.17
2022-12-27T03:39:45.949Z,2.17
2022-12-27T03:40:45.952Z,1.89
2022-12-27T03:41:45.964Z,2.17
2022-12-27T03:42:45.953Z,2.28
2022-12-27T03:43:45.958Z,1.89
2022-12-27T03:44:45.961Z,1.89
2022-12-27T03:45:45.969Z,2
2022-12-27T03:46:45.972Z,2.28
2022-12-27T03:47:45.969Z,2.17
2022-12-27T03:48:45.968Z,2.17
2022-12-27T03:49:46.017Z,2.28
2022-12-27T03:50:45.980Z,2.17
2022-12-27T03:51:46.052Z,2.17
2022-12-27T03:52:45.999Z,2.44
2022-12-27T03:53:45.993Z,2.61
2022-12-27T03:54:45.985Z,2.44
2022-12-27T03:55:45.978Z,2.28
2022-12-27T03:56:45.991Z,2.61
2022-12-27T03:57:45.988Z,2.17
2022-12-27T03:58:45.981Z,2.44
2022-12-27T03:59:45.997Z,2.28
2022-12-27T04:00:45.987Z,2.17
2022-12-27T04:01:46.051Z,1.61
2022-12-27T04:02:46.144Z,2.44
2022-12-27T04:03:45.999Z,2.17
2022-12-27T04:04:45.997Z,2.28
2022-12-27T04:05:45.991Z,2.61
2022-12-27T04:06:45.987Z,2.72
2022-12-27T04:07:46.012Z,2.61
2022-12-27T04:08:46.030Z,2.44
2022-12-27T04:09:46.003Z,2.28
2022-12-27T04:10:46.008Z,2.61
2022-12-27T04:11:46.016Z,2.28
2022-12-27T04:12:46.004Z,2.44
2022-12-27T04:13:46.004Z,2.44
2022-12-27T04:14:46.011Z,1.89
2022-12-27T04:15:46.033Z,2.44
2022-12-27T04:16:46.020Z,2.61
2022-12-27T04:17:46.028Z,2.72
2022-12-27T04:18:46.040Z,2.89
2022-12-27T04:19:46.018Z,3.17
2022-12-27T04:20:46.027Z,3.33
2022-12-27T04:21:46.026Z,3.33
2022-12-27T04:22:46.042Z,3.33
2022-12-27T04:23:46.030Z,3.33
2022-12-27T04:24:46.058Z,3.44
2022-12-27T04:25:46.033Z,3.56
2022-12-27T04:26:46.034Z,3.33
2022-12-27T04:27:46.033Z,3
2022-12-27T04:28:46.026Z,3
2022-12-27T04:29:46.036Z,3.17
2022-12-27T04:30:46.044Z,3.33
2022-12-27T04:31:46.046Z,3.33
2022-12-27T04:32:46.036Z,3.56
2022-12-27T04:33:46.042Z,3.56
2022-12-27T04:34:46.045Z,3.33
2022-12-27T04:35:46.063Z,3.44
2022-12-27T04:36:46.039Z,3.44
2022-12-27T04:37:46.057Z,3.56
2022-12-27T04:38:46.050Z,3.83
2022-12-27T04:39:46.059Z,3.56
2022-12-27T04:40:46.088Z,3.72
2022-12-27T04:41:46.049Z,3.44
2022-12-27T04:42:46.057Z,3.72
2022-12-27T04:43:46.066Z,3.56
2022-12-27T04:44:46.065Z,3.83
2022-12-27T04:45:46.059Z,4
2022-12-27T04:46:46.116Z,3.72
2022-12-27T04:47:46.075Z,4
2022-12-27T04:48:46.067Z,4
2022-12-27T04:49:46.077Z,3.83
2022-12-27T04:50:46.076Z,4.17
2022-12-27T04:51:46.071Z,3.83
2022-12-27T04:52:46.073Z,3.83
2022-12-27T04:53:46.070Z,4
2022-12-27T04:54:46.082Z,3.72
2022-12-27T04:55:46.084Z,4
2022-12-27T04:56:46.111Z,3.83
2022-12-27T04:57:46.083Z,3.83
2022-12-27T04:58:46.084Z,3.83
2022-12-27T04:59:46.082Z,3.83
2022-12-27T05:00:46.086Z,3.83
2022-12-27T05:01:46.161Z,3.72
2022-12-27T05:02:46.277Z,3.44
2022-12-27T05:03:46.192Z,3.33
2022-12-27T05:04:46.108Z,3.17
2022-12-27T05:05:46.114Z,3.17
2022-12-27T05:06:46.101Z,3.33
2022-12-27T05:07:46.104Z,3
2022-12-27T05:08:46.093Z,3.17
2022-12-27T05:09:46.095Z,2.89
2022-12-27T05:10:46.106Z,3.17
2022-12-27T05:11:46.104Z,3.17
2022-12-27T05:12:46.116Z,3.17
2022-12-27T05:13:46.112Z,3.17
2022-12-27T05:14:46.108Z,2.89
2022-12-27T05:15:46.186Z,3.17
2022-12-27T05:16:46.100Z,3.17
2022-12-27T05:17:46.116Z,3.33
2022-12-27T05:18:46.114Z,3.33
2022-12-27T05:19:46.130Z,3.44
2022-12-27T05:20:46.120Z,3.33
2022-12-27T05:21:46.128Z,3.56
2022-12-27T05:22:46.119Z,2.89
2022-12-27T05:23:46.118Z,3.44
2022-12-27T05:24:46.137Z,3.44
2022-12-27T05:25:46.132Z,3.33
2022-12-27T05:26:46.131Z,3.44
2022-12-27T05:27:46.130Z,3
2022-12-27T05:28:46.142Z,3.44
2022-12-27T05:29:46.128Z,3.33
2022-12-27T05:30:46.120Z,3.17
2022-12-27T05:31:46.207Z,3.44
2022-12-27T05:32:46.125Z,2.44
2022-12-27T05:33:46.123Z,3
2022-12-27T05:34:46.127Z,2.89
2022-12-27T05:35:46.112Z,3
2022-12-27T05:36:46.118Z,2.89
2022-12-27T05:37:50.112Z,2.72
2022-12-27T05:38:46.131Z,2.72
2022-12-27T05:39:46.131Z,2.61
2022-12-27T05:40:46.116Z,2.61
2022-12-27T05:41:46.130Z,2.89
2022-12-27T05:42:46.136Z,2.89
2022-12-27T05:43:46.130Z,2.61
2022-12-27T05:44:46.147Z,2.61
2022-12-27T05:45:46.140Z,2.89
2022-12-27T05:46:46.181Z,3
2022-12-27T05:47:46.124Z,3
2022-12-27T05:48:46.136Z,2.89
2022-12-27T05:49:46.130Z,2.89
2022-12-27T05:50:46.135Z,3
2022-12-27T05:51:46.130Z,3
2022-12-27T05:52:46.115Z,2.28
2022-12-27T05:53:46.147Z,2.61
2022-12-27T05:54:46.148Z,2.89
2022-12-27T05:55:46.130Z,2.72
2022-12-27T05:56:46.127Z,2.44
2022-12-27T05:57:46.152Z,3
2022-12-27T05:58:46.137Z,2.44
2022-12-27T05:59:46.137Z,3
2022-12-27T06:00:46.161Z,3
2022-12-27T06:01:46.345Z,3
2022-12-27T06:02:46.302Z,2.72
2022-12-27T06:03:46.146Z,2.72
2022-12-27T06:04:46.131Z,2.61
2022-12-27T06:05:46.128Z,2.28
2022-12-27T06:06:46.132Z,2.44
2022-12-27T06:07:46.134Z,2
2022-12-27T06:08:46.147Z,2.61
2022-12-27T06:09:46.137Z,2.28
2022-12-27T06:10:46.145Z,2.44
2022-12-27T06:11:46.171Z,2.28
2022-12-27T06:12:46.142Z,2.44
2022-12-27T06:13:46.151Z,2.44
2022-12-27T06:14:46.140Z,2.61
2022-12-27T06:15:46.146Z,2.44
2022-12-27T06:16:46.205Z,2.61
2022-12-27T06:17:46.159Z,2.61
2022-12-27T06:18:46.159Z,2.17
2022-12-27T06:19:46.157Z,2.17
2022-12-27T06:20:46.151Z,2.28
2022-12-27T06:21:46.171Z,2.17
2022-12-27T06:22:46.160Z,2.17
2022-12-27T06:23:46.164Z,2.44
2022-12-27T06:24:46.153Z,2.44
2022-12-27T06:25:46.163Z,2.72
2022-12-27T06:26:46.167Z,2.61
2022-12-27T06:27:46.162Z,2.61
2022-12-27T06:28:46.185Z,2.61
2022-12-27T06:29:46.150Z,2
2022-12-27T06:30:46.158Z,2.61
2022-12-27T06:31:46.192Z,2.44
2022-12-27T06:32:46.187Z,2.17
2022-12-27T06:33:46.153Z,2.44
2022-12-27T06:34:46.152Z,2.44
2022-12-27T06:35:46.159Z,2.28
2022-12-27T06:36:46.163Z,2.61
2022-12-27T06:37:46.159Z,2.28
2022-12-27T06:38:46.144Z,2.28
2022-12-27T06:39:46.170Z,2.28
2022-12-27T06:40:46.164Z,2.72
2022-12-27T06:41:46.164Z,2.61
2022-12-27T06:42:46.163Z,2.44
2022-12-27T06:43:46.159Z,2.61
2022-12-27T06:44:46.156Z,2.61
2022-12-27T06:45:46.189Z,2.44
2022-12-27T06:46:46.162Z,2.61
2022-12-27T06:47:46.178Z,2.28
2022-12-27T06:48:46.198Z,2.61
2022-12-27T06:49:46.166Z,2.61
2022-12-27T06:50:46.180Z,2.72
2022-12-27T06:51:46.207Z,2.44
2022-12-27T06:52:46.170Z,2.28
2022-12-27T06:53:46.168Z,2.72
2022-12-27T06:54:46.183Z,2.72
2022-12-27T06:55:46.177Z,2.44
2022-12-27T06:56:46.193Z,2.61
2022-12-27T06:57:46.193Z,2.61
2022-12-27T06:58:46.187Z,2.44
2022-12-27T06:59:50.929Z,2.28
2022-12-27T07:00:46.279Z,2.44
2022-12-27T07:01:46.266Z,2.44
2022-12-27T07:02:46.320Z,2.28
2022-12-27T07:03:46.191Z,2.61
2022-12-27T07:04:46.223Z,2.44
2022-12-27T07:05:46.190Z,2.61
2022-12-27T07:06:46.183Z,2.61
2022-12-27T07:07:46.188Z,2.28
2022-12-27T07:08:46.193Z,2.44
2022-12-27T07:09:46.200Z,2.44
2022-12-27T07:10:46.183Z,2.44
2022-12-27T07:11:46.196Z,2.44
2022-12-27T07:12:46.183Z,2.28
2022-12-27T07:13:46.207Z,2.28
2022-12-27T07:14:46.211Z,2.28
2022-12-27T07:15:46.200Z,2.44
2022-12-27T07:16:46.318Z,2.44
2022-12-27T07:17:46.203Z,2.61
2022-12-27T07:18:47.126Z,2.89
2022-12-27T07:19:46.203Z,2.72
2022-12-27T07:20:46.223Z,2.72
2022-12-27T07:21:46.191Z,2.61
2022-12-27T07:22:46.204Z,3
2022-12-27T07:23:46.206Z,3
2022-12-27T07:24:46.205Z,2.89
2022-12-27T07:25:46.221Z,2.72
2022-12-27T07:26:46.221Z,2.72
2022-12-27T07:27:46.214Z,2.61
2022-12-27T07:28:46.209Z,2.17
2022-12-27T07:29:46.203Z,2.72
2022-12-27T07:30:46.215Z,2.44
2022-12-27T07:31:46.259Z,2.72
2022-12-27T07:32:46.205Z,2.61
2022-12-27T07:33:46.232Z,2.44
2022-12-27T07:34:46.232Z,2.61
2022-12-27T07:35:46.229Z,2.89
2022-12-27T07:36:46.246Z,2.72
2022-12-27T07:37:46.238Z,2.72
2022-12-27T07:38:46.249Z,2.72
2022-12-27T07:39:46.224Z,2.61
2022-12-27T07:40:46.211Z,2.89
2022-12-27T07:41:46.217Z,3
2022-12-27T07:42:46.229Z,2.72
2022-12-27T07:43:46.228Z,2.44
2022-12-27T07:44:46.223Z,2.61
2022-12-27T07:45:46.254Z,3
2022-12-27T07:46:46.229Z,2.72
2022-12-27T07:47:46.240Z,2.89
2022-12-27T07:48:46.237Z,2.89
2022-12-27T07:49:46.239Z,2.72
2022-12-27T07:50:46.237Z,2.44
2022-12-27T07:51:46.238Z,2.61
2022-12-27T07:52:46.322Z,2.61
2022-12-27T07:53:46.234Z,2.61
2022-12-27T07:54:46.250Z,2.61
2022-12-27T07:55:46.234Z,2.61
2022-12-27T07:56:46.247Z,2.61
2022-12-27T07:57:46.235Z,2.61
2022-12-27T07:58:46.240Z,2.72
2022-12-27T07:59:46.239Z,2.44
2022-12-27T08:00:46.238Z,2.89
2022-12-27T08:01:46.339Z,3
2022-12-27T08:02:46.255Z,2.44
2022-12-27T08:03:46.260Z,3
2022-12-27T08:04:46.238Z,2.89
2022-12-27T08:05:46.247Z,2.89
2022-12-27T08:06:46.259Z,2.89
2022-12-27T08:07:46.236Z,2.89
2022-12-27T08:08:46.262Z,2.89
2022-12-27T08:09:46.242Z,2.89
2022-12-27T08:10:46.263Z,2.89
2022-12-27T08:11:46.261Z,2.72
2022-12-27T08:12:46.250Z,2.89
2022-12-27T08:13:46.257Z,2.72
2022-12-27T08:14:46.288Z,2.61
2022-12-27T08:15:46.250Z,2.89
2022-12-27T08:16:46.321Z,2.44
2022-12-27T08:17:46.279Z,3
2022-12-27T08:18:46.260Z,2.72
2022-12-27T08:19:46.264Z,3
2022-12-27T08:20:46.265Z,2.72
2022-12-27T08:21:46.259Z,3
2022-12-27T08:22:46.261Z,2.89
2022-12-27T08:23:46.261Z,2.44
2022-12-27T08:24:46.324Z,3
2022-12-27T08:25:48.884Z,3.17
2022-12-27T08:26:46.277Z,3.33
2022-12-27T08:27:46.273Z,3
2022-12-27T08:28:46.264Z,3
2022-12-27T08:29:46.276Z,2.89
2022-12-27T08:30:46.464Z,3
2022-12-27T08:31:46.263Z,3.33
2022-12-27T08:32:46.277Z,3.33
2022-12-27T08:33:46.298Z,3.17
2022-12-27T08:34:46.277Z,3.44
2022-12-27T08:35:54.485Z,3.17
2022-12-27T08:36:54.994Z,3.17
2022-12-27T08:37:46.274Z,3.17
2022-12-27T08:38:46.283Z,3.33
2022-12-27T08:39:46.277Z,3.17
2022-12-27T08:40:46.367Z,3.17
2022-12-27T08:41:46.287Z,3.17
2022-12-27T08:42:46.288Z,3.33
2022-12-27T08:43:46.280Z,3.33
2022-12-27T08:44:46.281Z,3.44
2022-12-27T08:45:46.314Z,3.44
2022-12-27T08:46:46.275Z,3.44
2022-12-27T08:47:46.276Z,3.17
2022-12-27T08:48:46.291Z,3.17
2022-12-27T08:49:46.293Z,3.17
2022-12-27T08:50:46.300Z,3.33
2022-12-27T08:51:46.325Z,3.44
2022-12-27T08:52:46.292Z,3.72
2022-12-27T08:53:46.286Z,3.72
2022-12-27T08:54:46.293Z,3.56
2022-12-27T08:55:46.308Z,3.56
2022-12-27T08:56:46.332Z,3.33
2022-12-27T08:57:46.322Z,3.44
2022-12-27T08:58:46.303Z,3.44
2022-12-27T08:59:46.316Z,3.44
2022-12-27T09:00:46.298Z,3.33
2022-12-27T09:01:46.402Z,3.33
2022-12-27T09:02:46.308Z,3.33
2022-12-27T09:03:46.308Z,3.33
2022-12-27T09:04:46.303Z,3.33
2022-12-27T09:05:46.312Z,3.44
2022-12-27T09:06:46.302Z,3.33
2022-12-27T09:07:46.318Z,2.89
2022-12-27T09:08:46.307Z,3.33
2022-12-27T09:09:46.321Z,3.33
2022-12-27T09:10:46.303Z,3.17
2022-12-27T09:11:46.312Z,3.17
2022-12-27T09:12:46.331Z,3.44
2022-12-27T09:13:46.297Z,3
2022-12-27T09:14:46.306Z,3.33
2022-12-27T09:15:46.363Z,3.33
2022-12-27T09:16:46.328Z,3.33
2022-12-27T09:17:46.313Z,3.44
2022-12-27T09:18:46.319Z,3.33
2022-12-27T09:19:46.316Z,3.44
2022-12-27T09:20:46.323Z,3.44
2022-12-27T09:21:46.315Z,3.33
2022-12-27T09:22:46.315Z,3.17
2022-12-27T09:23:46.324Z,3.56
2022-12-27T09:24:46.326Z,3.44
2022-12-27T09:25:46.376Z,3.44
2022-12-27T09:26:46.315Z,3.56
2022-12-27T09:27:46.334Z,3.33
2022-12-27T09:28:46.341Z,3.44
2022-12-27T09:29:48.355Z,3.44
2022-12-27T09:30:46.337Z,3.44
2022-12-27T09:31:46.322Z,3.56
2022-12-27T09:32:46.335Z,3.44
2022-12-27T09:33:46.329Z,3.44
2022-12-27T09:34:46.329Z,3
2022-12-27T09:35:46.337Z,3.44
2022-12-27T09:36:46.330Z,3.44
2022-12-27T09:37:46.336Z,3.33
2022-12-27T09:38:46.380Z,3.44
2022-12-27T09:39:46.336Z,3.44
2022-12-27T09:40:46.339Z,3.17
2022-12-27T09:42:56.884Z,3.44
2022-12-27T09:43:46.328Z,3.33
2022-12-27T09:44:46.359Z,3.56
2022-12-27T09:45:46.338Z,3.72
2022-12-27T09:46:46.372Z,3.56
2022-12-27T09:47:46.346Z,3.56
2022-12-27T09:48:46.328Z,3.56
2022-12-27T09:49:46.356Z,3.56
2022-12-27T09:50:46.340Z,3.33
2022-12-27T09:51:46.341Z,3.56
2022-12-27T09:52:46.347Z,3.72
2022-12-27T09:53:46.362Z,3.72
2022-12-27T09:54:46.332Z,3.83
2022-12-27T09:55:46.345Z,3.56
2022-12-27T09:57:18.121Z,3.83
2022-12-27T09:57:46.355Z,4
2022-12-27T09:58:46.380Z,3.83
2022-12-27T09:59:46.352Z,4
2022-12-27T10:00:46.712Z,4.17
2022-12-27T10:01:46.461Z,4
2022-12-27T10:02:46.455Z,4.28
2022-12-27T10:03:46.368Z,4.17
2022-12-27T10:05:18.339Z,4.28
2022-12-27T10:05:46.384Z,4.28
2022-12-27T10:06:46.374Z,4.17
2022-12-27T10:07:46.359Z,4.28
2022-12-27T10:08:46.357Z,4.17
2022-12-27T10:09:46.359Z,3.83
2022-12-27T10:10:46.401Z,3.56
2022-12-27T10:11:46.368Z,4.17
2022-12-27T10:12:46.399Z,3.83
2022-12-27T10:13:46.368Z,3.83
2022-12-27T10:14:46.364Z,4.17
2022-12-27T10:15:46.363Z,4.28
2022-12-27T10:16:46.404Z,4.17
2022-12-27T10:17:51.110Z,4.17
2022-12-27T10:18:46.382Z,4.28
2022-12-27T10:19:46.385Z,4.17
2022-12-27T10:20:46.379Z,4.28
2022-12-27T10:21:46.366Z,3.72
2022-12-27T10:22:46.386Z,4.28
2022-12-27T10:23:46.369Z,4.28
2022-12-27T10:24:46.385Z,4.17
2022-12-27T10:25:46.399Z,4.28
2022-12-27T10:26:46.380Z,4.28
2022-12-27T10:27:46.380Z,4
2022-12-27T10:28:46.370Z,4.44
2022-12-27T10:29:46.391Z,4.28
2022-12-27T10:30:46.387Z,4
2022-12-27T10:31:46.397Z,4.44
2022-12-27T10:32:46.409Z,4.28
2022-12-27T10:33:46.383Z,4.17
2022-12-27T10:34:46.397Z,4.28
2022-12-27T10:35:46.387Z,4.17
2022-12-27T10:36:46.391Z,4.17
2022-12-27T10:37:46.402Z,4.17
2022-12-27T10:38:46.390Z,3.83
2022-12-27T10:39:46.415Z,4
2022-12-27T10:40:46.394Z,4.17
2022-12-27T10:41:46.387Z,3.83
2022-12-27T10:42:46.394Z,3.72
2022-12-27T10:43:46.394Z,3.72
2022-12-27T10:44:46.387Z,3.83
2022-12-27T10:45:46.415Z,3.56
2022-12-27T10:46:46.399Z,3.83
2022-12-27T10:47:46.390Z,3.83
2022-12-27T10:49:19.239Z,3.56
2022-12-27T10:49:46.408Z,4.06
2022-12-27T10:50:46.391Z,3.83
2022-12-27T10:51:46.423Z,3.72
2022-12-27T10:52:46.391Z,3.83
2022-12-27T10:53:46.395Z,4
2022-12-27T10:54:46.399Z,4.17
2022-12-27T10:55:46.406Z,4.17
2022-12-27T10:56:46.403Z,4.28
2022-12-27T10:57:46.403Z,4.28
2022-12-27T10:58:46.399Z,3.83
2022-12-27T10:59:46.415Z,4.28
2022-12-27T11:00:46.416Z,4.28
2022-12-27T11:01:46.456Z,4.17
2022-12-27T11:02:46.536Z,4.39
2022-12-27T11:03:46.411Z,4.17
2022-12-27T11:04:46.430Z,4.44
2022-12-27T11:05:46.408Z,4.17
2022-12-27T11:06:46.412Z,4
2022-12-27T11:07:46.413Z,4.44
2022-12-27T11:08:46.387Z,4.28
2022-12-27T11:09:50.973Z,4.17
2022-12-27T11:10:46.434Z,4.56
2022-12-27T11:11:46.399Z,4.72
2022-12-27T11:12:46.424Z,4.72
2022-12-27T11:13:46.418Z,4.44
2022-12-27T11:14:46.407Z,4.72
2022-12-27T11:15:46.435Z,4.72
2022-12-27T11:16:46.430Z,4.56
2022-12-27T11:17:46.399Z,4.72
2022-12-27T11:18:46.406Z,5.06
2022-12-27T11:19:46.411Z,4.72
2022-12-27T11:20:46.436Z,5
2022-12-27T11:21:46.415Z,4.44
2022-12-27T11:22:46.438Z,4.28
2022-12-27T11:23:46.409Z,4.72
2022-12-27T11:24:46.408Z,4.56
2022-12-27T11:25:46.408Z,4.72
2022-12-27T11:26:50.244Z,4.44
2022-12-27T11:27:46.416Z,4.56
2022-12-27T11:28:46.430Z,4.56
2022-12-27T11:29:46.407Z,4.72
2022-12-27T11:30:46.406Z,4.72
2022-12-27T11:31:46.496Z,4.72
2022-12-27T11:32:46.412Z,4.72
2022-12-27T11:33:46.461Z,4.56
2022-12-27T11:34:46.434Z,4.72
2022-12-27T11:35:46.442Z,4.72
2022-12-27T11:36:46.444Z,5
2022-12-27T11:37:46.417Z,4.72
2022-12-27T11:38:46.413Z,4.72
2022-12-27T11:39:46.435Z,5.17
2022-12-27T11:40:46.438Z,5.17
2022-12-27T11:41:46.432Z,5.17
2022-12-27T11:42:46.411Z,5
2022-12-27T11:43:46.413Z,5.33
2022-12-27T11:44:46.421Z,5.61
2022-12-27T11:45:46.414Z,5.17
2022-12-27T11:46:46.456Z,5.67
2022-12-27T11:47:46.415Z,5.72
2022-12-27T11:48:46.413Z,5.44
2022-12-27T11:49:46.431Z,5.61
2022-12-27T11:50:46.428Z,5.72
2022-12-27T11:51:46.420Z,5.61
2022-12-27T11:52:46.444Z,5.72
2022-12-27T11:53:48.747Z,5.61
2022-12-27T11:54:46.425Z,5.61
2022-12-27T11:55:46.473Z,5.17
2022-12-27T11:56:46.421Z,5.17
2022-12-27T11:57:46.431Z,5.33
2022-12-27T11:58:46.421Z,5.39
2022-12-27T11:59:46.424Z,5.39
2022-12-27T12:00:46.431Z,5.33
2022-12-27T12:01:46.537Z,5.22
2022-12-27T12:02:46.518Z,5.56
2022-12-27T12:03:46.462Z,5.39
2022-12-27T12:04:46.436Z,5.22
2022-12-27T12:05:46.451Z,5.56
2022-12-27T12:06:46.437Z,5.78
2022-12-27T12:07:46.437Z,5.39
2022-12-27T12:08:46.465Z,5.78
2022-12-27T12:09:46.449Z,5.56
2022-12-27T12:10:46.442Z,5.56
2022-12-27T12:11:49.947Z,5.56
2022-12-27T12:12:46.444Z,5.39
2022-12-27T12:13:46.456Z,5.22
2022-12-27T12:14:46.447Z,5.22
2022-12-27T12:15:46.453Z,5.11
2022-12-27T12:16:46.575Z,4.83
2022-12-27T12:17:46.458Z,4.67
2022-12-27T12:18:46.455Z,5.11
2022-12-27T12:19:46.449Z,5.39
2022-12-27T12:20:50.652Z,4.83
2022-12-27T12:21:46.446Z,4.94
2022-12-27T12:22:46.460Z,5.11
2022-12-27T12:23:46.442Z,5.39
2022-12-27T12:24:46.474Z,5.11
2022-12-27T12:25:46.454Z,4.83
2022-12-27T12:26:46.466Z,4.94
2022-12-27T12:27:46.449Z,4.83
2022-12-27T12:29:00.502Z,4.5
2022-12-27T12:29:46.463Z,4.94
2022-12-27T12:30:46.472Z,4.94
2022-12-27T12:31:46.488Z,5.11
2022-12-27T12:32:46.476Z,4.94
2022-12-27T12:33:46.472Z,4.94
2022-12-27T12:34:46.471Z,5.11
2022-12-27T12:35:46.492Z,4.67
2022-12-27T12:36:50.757Z,4.94
2022-12-27T12:37:46.477Z,4.83
2022-12-27T12:38:46.471Z,4.94
2022-12-27T12:39:46.504Z,4.94
2022-12-27T12:40:46.514Z,4.94
2022-12-27T12:41:46.481Z,4.94
2022-12-27T12:42:46.479Z,4.83
2022-12-27T12:43:46.469Z,4.83
2022-12-27T12:44:46.485Z,5.39
2022-12-27T12:45:46.498Z,4.67
2022-12-27T12:46:46.465Z,4.94
2022-12-27T12:47:46.503Z,5.11
2022-12-27T12:48:46.477Z,5.11
2022-12-27T12:49:46.479Z,5.11
2022-12-27T12:50:46.480Z,5.22
2022-12-27T12:51:46.493Z,5.11
2022-12-27T12:52:46.487Z,5.11
2022-12-27T12:53:46.480Z,5.11
2022-12-27T12:54:46.487Z,5.39
2022-12-27T12:55:46.495Z,4.94
2022-12-27T12:56:46.559Z,5.11
2022-12-27T12:57:46.515Z,4.67
2022-12-27T12:58:46.493Z,5.22
2022-12-27T12:59:46.493Z,5.39
2022-12-27T13:00:46.502Z,5.67
2022-12-27T13:01:50.622Z,5.39
2022-12-27T13:02:46.631Z,5.22
2022-12-27T13:03:46.519Z,5.22
2022-12-27T13:04:46.501Z,5.11
2022-12-27T13:05:46.506Z,5.39
2022-12-27T13:06:46.499Z,5.39
2022-12-27T13:07:46.492Z,5.94
2022-12-27T13:08:46.502Z,5.11
2022-12-27T13:09:46.496Z,4.83
2022-12-27T13:10:46.512Z,5.39
2022-12-27T13:11:46.499Z,5.67
2022-12-27T13:12:52.369Z,5.39
2022-12-27T13:13:46.496Z,5.11
2022-12-27T13:14:46.509Z,5.39
2022-12-27T13:15:46.563Z,5.11
2022-12-27T13:16:46.576Z,5.56
2022-12-27T13:17:46.527Z,5.39
2022-12-27T13:18:46.521Z,5.67
2022-12-27T13:19:46.500Z,5.78
2022-12-27T13:20:46.510Z,5.78
2022-12-27T13:21:46.511Z,5.67
2022-12-27T13:22:46.519Z,5.94
2022-12-27T13:23:46.563Z,5.78
2022-12-27T13:24:46.526Z,6.06
2022-12-27T13:25:46.530Z,5.67
2022-12-27T13:26:46.531Z,5.78
2022-12-27T13:27:46.519Z,5.78
2022-12-27T13:28:46.567Z,5.67
2022-12-27T13:29:46.532Z,5.39